Time;durP1;ratioP1;P1;durP2;ratioP2;P2;SDS_P1;SDS_P2;PMS_P1;PMS_P2;Temp;Humidity;BMP_temperature;BMP_pressure;BME280_temperature;BME280_humidity;BME280_pressure;Samples;Min_cycle;Max_cycle;Signal;HPM_P1;HPM_P2
2023/02/18 00:01:17;;;;;;;3.63;2.50;;;9.10;99.90;;;;;;5015112;28;20176;-82
2023/02/18 00:03:42;;;;;;;3.80;2.87;;;9.00;99.90;;;;;;5032608;28;20187;-83
2023/02/18 00:06:17;;;;;;;8.17;3.30;;;9.00;99.90;;;;;;5014761;28;20303;-82
2023/02/18 00:08:44;;;;;;;4.87;3.03;;;9.00;99.90;;;;;;5032614;28;20180;-82
2023/02/18 00:11:10;;;;;;;4.03;3.23;;;9.10;99.90;;;;;;5032591;28;20177;-82
2023/02/18 00:13:36;;;;;;;1.93;1.70;;;9.20;99.90;;;;;;4998727;28;20195;-82
2023/02/18 00:16:03;;;;;;;4.10;2.67;;;9.20;99.90;;;;;;5014899;28;20217;-82
2023/02/18 00:18:29;;;;;;;2.70;1.60;;;9.30;99.90;;;;;;5015298;28;20589;-81
2023/02/18 00:20:55;;;;;;;1.97;1.73;;;9.30;99.90;;;;;;5036057;28;20211;-82
2023/02/18 00:23:20;;;;;;;2.03;1.30;;;9.30;99.90;;;;;;4985623;28;20188;-82
2023/02/18 00:25:46;;;;;;;0.80;0.80;;;9.30;99.90;;;;;;5035743;28;20314;-82
2023/02/18 00:28:12;;;;;;;2.80;1.47;;;9.20;99.90;;;;;;5018209;28;20192;-81
2023/02/18 00:30:42;;;;;;;1.03;1.00;;;9.20;99.90;;;;;;5036307;28;20180;-82
2023/02/18 00:33:08;;;;;;;1.10;1.00;;;9.20;99.90;;;;;;5035800;28;20215;-82
2023/02/18 00:35:34;;;;;;;1.27;0.90;;;9.20;99.90;;;;;;5018434;28;20207;-82
2023/02/18 00:37:59;;;;;;;2.60;0.90;;;9.20;99.90;;;;;;5035371;28;20196;-82
2023/02/18 00:40:25;;;;;;;1.17;1.07;;;9.10;99.90;;;;;;5001863;28;20188;-82
2023/02/18 00:42:51;;;;;;;0.82;0.82;;;9.00;99.90;;;;;;5018356;28;20287;-82
2023/02/18 00:45:16;;;;;;;1.27;0.70;;;9.10;99.90;;;;;;5017989;28;20192;-82
2023/02/18 00:47:42;;;;;;;1.00;0.70;;;9.00;99.90;;;;;;5035640;28;20204;-82
2023/02/18 00:50:09;;;;;;;2.17;0.93;;;9.00;99.90;;;;;;5035492;28;20180;-82
2023/02/18 00:52:35;;;;;;;0.60;0.60;;;9.00;99.90;;;;;;5017924;28;20547;-82
2023/02/18 00:55:01;;;;;;;0.77;0.77;;;8.90;99.90;;;;;;5035375;28;20181;-82
2023/02/18 00:57:26;;;;;;;0.50;0.50;;;8.80;99.90;;;;;;5017936;28;20188;-82
2023/02/18 00:59:52;;;;;;;0.90;0.80;;;8.90;99.90;;;;;;5035416;28;20180;-82
2023/02/18 01:02:18;;;;;;;0.70;0.70;;;9.00;99.90;;;;;;5017775;28;20246;-82
2023/02/18 01:04:43;;;;;;;0.50;0.50;;;9.00;99.90;;;;;;5035189;28;20228;-82
2023/02/18 01:07:09;;;;;;;0.63;0.63;;;8.90;99.90;;;;;;5017246;28;20208;-82
2023/02/18 01:09:35;;;;;;;0.70;0.70;;;8.80;99.90;;;;;;5017821;28;20188;-82
2023/02/18 01:12:01;;;;;;;0.63;0.60;;;8.80;97.90;;;;;;5034890;28;20724;-82
2023/02/18 01:14:27;;;;;;;0.50;0.50;;;8.80;96.90;;;;;;5035266;28;20184;-82
2023/02/18 01:16:53;;;;;;;0.53;0.53;;;8.70;96.50;;;;;;5001474;28;20239;-82
2023/02/18 01:19:18;;;;;;;1.30;0.93;;;8.70;94.10;;;;;;5001510;28;20192;-82
2023/02/18 01:21:44;;;;;;;0.70;0.70;;;8.70;93.70;;;;;;5035477;28;20181;-82
2023/02/18 01:24:09;;;;;;;0.73;0.50;;;8.60;93.80;;;;;;5035598;28;20212;-82
2023/02/18 01:26:35;;;;;;;0.57;0.57;;;8.50;93.40;;;;;;5001242;28;20243;-82
2023/02/18 01:29:01;;;;;;;1.70;0.80;;;8.50;94.40;;;;;;5035793;28;20188;-82
2023/02/18 01:31:26;;;;;;;0.57;0.57;;;8.40;94.00;;;;;;5017771;28;20240;-82
2023/02/18 01:33:52;;;;;;;0.50;0.50;;;8.30;93.80;;;;;;5017749;28;20626;-82
2023/02/18 01:36:18;;;;;;;0.67;0.67;;;8.20;93.80;;;;;;5035165;28;20638;-82
2023/02/18 01:38:44;;;;;;;1.03;0.60;;;8.20;94.20;;;;;;5034797;28;20645;-82
2023/02/18 01:41:10;;;;;;;0.40;0.40;;;8.20;95.30;;;;;;5034540;28;20688;-82
2023/02/18 01:43:36;;;;;;;0.80;0.80;;;8.10;95.30;;;;;;5034687;28;20191;-82
2023/02/18 01:46:18;;;;;;;0.57;0.57;;;8.00;95.20;;;;;;5036352;28;20187;-82
2023/02/18 01:48:55;;;;;;;0.50;0.50;;;7.90;96.80;;;;;;5045324;28;20165;-81
2023/02/18 01:51:27;;;;;;;0.40;0.40;;;7.90;96.50;;;;;;5031062;28;20247;-81
2023/02/18 01:54:18;;;;;;;2.73;0.87;;;7.90;97.90;;;;;;5042911;28;20211;-81
2023/02/18 01:57:17;;;;;;;2.97;0.60;;;7.80;97.90;;;;;;5022736;28;20197;-81
2023/02/18 01:59:55;;;;;;;2.90;0.60;;;7.80;98.60;;;;;;5045026;28;20603;-82
2023/02/18 02:02:25;;;;;;;0.70;0.70;;;7.80;99.10;;;;;;5027399;28;20169;-82
2023/02/18 02:04:51;;;;;;;1.80;0.97;;;7.70;99.90;;;;;;5046383;28;20177;-81
2023/02/18 02:07:20;;;;;;;0.70;0.60;;;7.70;99.90;;;;;;5046460;28;20335;-82
2023/02/18 02:09:49;;;;;;;1.53;0.60;;;7.60;99.90;;;;;;5029827;28;20214;-82
2023/02/18 02:12:20;;;;;;;0.63;0.63;;;7.60;99.90;;;;;;5034829;28;20208;-82
2023/02/18 02:15:07;;;;;;;0.70;0.50;;;7.70;99.90;;;;;;5016853;28;20673;-82
2023/02/18 02:17:49;;;;;;;0.67;0.67;;;7.70;99.90;;;;;;5017029;28;20629;-82
2023/02/18 02:20:42;;;;;;;0.60;0.60;;;7.70;99.90;;;;;;5016400;28;20213;-82
2023/02/18 02:23:36;;;;;;;0.70;0.70;;;7.70;99.90;;;;;;5015855;28;20190;-82
2023/02/18 02:26:39;;;;;;;0.80;0.80;;;7.70;99.90;;;;;;5033970;28;20247;-83
2023/02/18 02:29:26;;;;;;;0.60;0.60;;;7.60;99.90;;;;;;5016228;28;20234;-83
2023/02/18 02:32:03;;;;;;;0.60;0.47;;;7.60;99.90;;;;;;5016050;28;20268;-82
2023/02/18 02:34:55;;;;;;;0.70;0.70;;;7.60;99.90;;;;;;5034257;28;20164;-82
2023/02/18 02:37:40;;;;;;;0.60;0.60;;;7.50;99.90;;;;;;5002604;28;20198;-82
2023/02/18 02:40:18;;;;;;;0.87;0.87;;;7.50;99.90;;;;;;5015669;28;20176;-82
2023/02/18 02:43:12;;;;;;;0.57;0.57;;;7.30;99.90;;;;;;5033369;28;20222;-82
2023/02/18 02:46:02;;;;;;;0.60;0.60;;;7.30;99.90;;;;;;5016054;28;20188;-82
2023/02/18 02:48:45;;;;;;;0.50;0.50;;;7.20;99.90;;;;;;5033558;28;20186;-81
2023/02/18 02:51:40;;;;;;;0.80;0.80;;;7.20;99.90;;;;;;5033365;28;20191;-82
2023/02/18 02:54:20;;;;;;;1.10;0.80;;;7.20;99.90;;;;;;5004827;28;20181;-82
2023/02/18 02:56:45;;;;;;;8.47;0.83;;;7.20;99.90;;;;;;5015527;28;20180;-82
2023/02/18 02:59:19;;;;;;;0.70;0.70;;;7.20;99.90;;;;;;5015475;28;20580;-82
2023/02/18 03:02:13;;;;;;;1.00;1.00;;;7.20;99.90;;;;;;5033534;28;20239;-81
2023/02/18 03:05:09;;;;;;;1.50;0.80;;;7.10;99.90;;;;;;5015938;28;20227;-82
2023/02/18 03:07:44;;;;;;;1.03;0.83;;;7.10;99.90;;;;;;5033168;28;20192;-82
2023/02/18 03:10:31;;;;;;;0.77;0.60;;;7.10;99.90;;;;;;5032960;28;20168;-82
2023/02/18 03:13:11;;;;;;;2.97;1.27;;;7.00;99.90;;;;;;5015754;28;20641;-82
2023/02/18 03:15:55;;;;;;;0.80;0.70;;;7.00;99.90;;;;;;5033693;28;20218;-83
2023/02/18 03:18:23;;;;;;;1.07;1.00;;;7.10;99.90;;;;;;5015366;28;20176;-83
2023/02/18 03:20:59;;;;;;;1.00;1.00;;;7.10;99.90;;;;;;5033466;28;20246;-82
2023/02/18 03:23:31;;;;;;;0.70;0.70;;;7.10;99.90;;;;;;5015244;28;20177;-83
2023/02/18 03:25:58;;;;;;;1.33;0.97;;;7.10;99.90;;;;;;5033328;28;20319;-82
2023/02/18 03:28:27;;;;;;;2.27;1.20;;;7.10;99.90;;;;;;5033222;28;20219;-82
2023/02/18 03:30:58;;;;;;;0.70;0.70;;;7.10;99.90;;;;;;5033070;28;20173;-83
2023/02/18 03:33:41;;;;;;;1.80;0.70;;;7.10;99.90;;;;;;5015271;28;20174;-83
2023/02/18 03:36:08;;;;;;;1.13;0.80;;;7.10;99.90;;;;;;5032906;28;20176;-83
2023/02/18 03:38:49;;;;;;;3.30;1.23;;;7.10;99.90;;;;;;5033002;28;20200;-82
2023/02/18 03:41:15;;;;;;;0.93;0.73;;;7.10;99.90;;;;;;5032643;28;20181;-82
2023/02/18 03:43:52;;;;;;;2.00;1.03;;;7.10;99.90;;;;;;5032840;28;20208;-81
2023/02/18 03:46:18;;;;;;;3.17;1.20;;;7.10;99.90;;;;;;5032861;28;20279;-81
2023/02/18 03:48:44;;;;;;;0.80;0.80;;;7.10;99.90;;;;;;5015123;28;20283;-82
2023/02/18 03:51:10;;;;;;;1.47;0.57;;;7.10;99.90;;;;;;5033022;28;20187;-81
2023/02/18 03:53:35;;;;;;;1.03;0.90;;;7.10;99.90;;;;;;5033893;28;20255;-80
2023/02/18 03:56:01;;;;;;;2.40;2.13;;;7.10;99.90;;;;;;5037187;28;20176;-80
2023/02/18 03:58:27;;;;;;;2.77;0.60;;;7.10;99.90;;;;;;5036312;28;20654;-81
2023/02/18 04:00:52;;;;;;;5.70;1.13;;;7.10;99.90;;;;;;5018942;28;20605;-82
2023/02/18 04:03:18;;;;;;;1.43;0.60;;;7.00;99.90;;;;;;5018739;28;20177;-82
2023/02/18 04:05:44;;;;;;;2.10;1.87;;;7.00;99.90;;;;;;5019081;28;20267;-81
2023/02/18 04:08:09;;;;;;;0.80;0.80;;;6.90;99.90;;;;;;5036299;28;20246;-81
2023/02/18 04:10:35;;;;;;;2.67;0.90;;;6.90;99.90;;;;;;5036552;28;20180;-81
2023/02/18 04:13:01;;;;;;;0.50;0.50;;;6.90;99.90;;;;;;5036155;28;20703;-81
2023/02/18 04:15:26;;;;;;;0.77;0.77;;;6.70;99.90;;;;;;4986047;28;20796;-81
2023/02/18 04:17:52;;;;;;;5.40;1.00;;;6.70;99.90;;;;;;5018725;28;20191;-82
2023/02/18 04:20:18;;;;;;;0.70;0.70;;;6.60;99.90;;;;;;5002087;28;20187;-81
2023/02/18 04:22:44;;;;;;;2.33;0.83;;;6.60;99.90;;;;;;5018764;28;20542;-81
2023/02/18 04:25:09;;;;;;;0.67;0.67;;;6.60;99.90;;;;;;5018317;28;20294;-81
2023/02/18 04:27:35;;;;;;;0.87;0.73;;;6.60;99.90;;;;;;5018286;28;20208;-83
2023/02/18 04:30:01;;;;;;;0.80;0.80;;;6.60;99.90;;;;;;5018476;28;20195;-80
2023/02/18 04:32:26;;;;;;;3.43;1.87;;;6.60;99.90;;;;;;4985640;28;20598;-81
2023/02/18 04:34:52;;;;;;;4.87;0.70;;;6.50;99.90;;;;;;5018319;28;20652;-81
2023/02/18 04:37:18;;;;;;;0.40;0.40;;;6.60;99.90;;;;;;5035570;28;20630;-82
2023/02/18 04:39:43;;;;;;;2.57;1.17;;;6.60;99.90;;;;;;5018366;28;20184;-81
2023/02/18 04:42:09;;;;;;;1.27;1.17;;;6.50;99.90;;;;;;5018674;28;20181;-81
2023/02/18 04:44:38;;;;;;;1.20;0.63;;;6.60;99.90;;;;;;4985342;28;20250;-81
2023/02/18 04:47:05;;;;;;;3.03;1.40;;;6.50;99.90;;;;;;5001675;28;20219;-81
2023/02/18 04:49:31;;;;;;;1.17;0.77;;;6.40;99.90;;;;;;5035534;28;20196;-82
2023/02/18 04:51:57;;;;;;;1.17;0.87;;;6.40;99.90;;;;;;5035706;28;20243;-81
2023/02/18 04:54:23;;;;;;;3.83;1.30;;;6.40;99.90;;;;;;5016476;28;20267;-81
2023/02/18 04:56:48;;;;;;;6.73;1.27;;;6.40;99.90;;;;;;5001834;28;20188;-81
2023/02/18 04:59:15;;;;;;;0.63;0.63;;;6.30;99.90;;;;;;5035351;28;20176;-82
2023/02/18 05:01:41;;;;;;;0.90;0.70;;;6.30;99.90;;;;;;5012156;28;20212;-82
2023/02/18 05:04:06;;;;;;;4.30;0.90;;;6.20;99.90;;;;;;5015683;28;20185;-81
2023/02/18 05:06:32;;;;;;;0.70;0.70;;;6.20;99.90;;;;;;4997698;28;20213;-81
2023/02/18 05:08:58;;;;;;;2.80;1.57;;;6.20;99.90;;;;;;5015741;28;20269;-81
2023/02/18 05:11:23;;;;;;;2.67;0.90;;;6.20;99.90;;;;;;5026600;28;20189;-82
2023/02/18 05:13:49;;;;;;;0.70;0.70;;;6.10;99.90;;;;;;5032126;28;20185;-81
2023/02/18 05:16:15;;;;;;;0.73;0.73;;;6.00;99.90;;;;;;5034837;28;20184;-81
2023/02/18 05:18:41;;;;;;;1.60;0.80;;;6.00;99.90;;;;;;5008264;28;20186;-81
2023/02/18 05:21:06;;;;;;;1.00;0.83;;;5.90;99.90;;;;;;5024017;28;20200;-81
2023/02/18 05:23:32;;;;;;;1.97;0.87;;;5.90;99.90;;;;;;5008392;28;20212;-82
2023/02/18 05:25:58;;;;;;;1.80;1.17;;;5.80;99.90;;;;;;5024933;28;20227;-81
2023/02/18 05:28:24;;;;;;;4.53;0.90;;;5.80;99.90;;;;;;4993528;28;20672;-83
2023/02/18 05:30:50;;;;;;;3.90;1.47;;;5.90;99.90;;;;;;5014375;28;20177;-81
2023/02/18 05:33:15;;;;;;;0.63;0.60;;;5.80;99.90;;;;;;5008259;28;20177;-82
2023/02/18 05:35:41;;;;;;;2.67;1.07;;;5.80;99.90;;;;;;4985700;28;20658;-82
2023/02/18 05:38:07;;;;;;;2.97;0.57;;;5.90;99.90;;;;;;4981247;28;20276;-82
2023/02/18 05:40:32;;;;;;;0.50;0.50;;;5.80;99.90;;;;;;4996703;28;20185;-82
2023/02/18 05:42:58;;;;;;;0.67;0.60;;;5.70;99.90;;;;;;4980980;28;20197;-81
2023/02/18 05:45:24;;;;;;;1.93;0.93;;;5.70;99.90;;;;;;5019667;28;20543;-81
2023/02/18 05:47:49;;;;;;;13.13;1.30;;;5.70;99.90;;;;;;5006021;28;20669;-84
2023/02/18 05:50:15;;;;;;;6.63;1.00;;;5.60;99.90;;;;;;5024966;28;20193;-82
2023/02/18 05:52:41;;;;;;;0.70;0.70;;;5.70;99.90;;;;;;5004600;28;20189;-81
2023/02/18 05:55:07;;;;;;;18.77;1.40;;;5.70;99.90;;;;;;4987523;28;20566;-82
2023/02/18 05:57:32;;;;;;;2.47;0.90;;;5.70;99.90;;;;;;5001029;28;20275;-81
2023/02/18 05:59:58;;;;;;;0.73;0.73;;;5.80;99.90;;;;;;5025198;28;20271;-81
2023/02/18 06:02:23;;;;;;;5.73;1.23;;;5.70;99.90;;;;;;5004743;28;20195;-81
2023/02/18 06:04:49;;;;;;;0.90;0.90;;;5.70;99.90;;;;;;5002703;28;20188;-82
2023/02/18 06:07:19;;;;;;;1.77;0.80;;;5.70;99.90;;;;;;5002329;28;20236;-83
2023/02/18 06:09:46;;;;;;;0.73;0.73;;;5.80;99.90;;;;;;5006085;28;20197;-84
2023/02/18 06:12:12;;;;;;;2.50;1.07;;;5.80;99.90;;;;;;5007040;28;20275;-84
2023/02/18 06:14:41;;;;;;;3.30;0.97;;;5.80;99.90;;;;;;4988795;28;20279;-81
2023/02/18 06:17:08;;;;;;;0.63;0.63;;;5.90;99.90;;;;;;5002769;28;20247;-83
2023/02/18 06:19:34;;;;;;;1.57;0.97;;;5.80;99.90;;;;;;5003778;28;20185;-84
2023/02/18 06:21:59;;;;;;;4.53;1.20;;;5.90;99.90;;;;;;5002927;28;20214;-84
2023/02/18 06:24:25;;;;;;;1.40;0.87;;;5.80;99.90;;;;;;4976938;28;20193;-82
2023/02/18 06:26:51;;;;;;;0.40;0.40;;;5.80;99.90;;;;;;5014368;28;20201;-82
2023/02/18 06:29:17;;;;;;;1.63;0.70;;;5.90;99.90;;;;;;5002068;28;20247;-84
2023/02/18 06:31:43;;;;;;;7.23;1.00;;;5.90;99.90;;;;;;5012370;28;20189;-84
2023/02/18 06:34:08;;;;;;;1.37;1.13;;;5.90;99.90;;;;;;5004078;28;20184;-85
2023/02/18 06:36:34;;;;;;;0.53;0.53;;;5.90;99.90;;;;;;5005283;28;20585;-84
2023/02/18 06:39:03;;;;;;;3.07;1.37;;;5.90;99.90;;;;;;5025752;28;20209;-85
2023/02/18 06:41:28;;;;;;;2.83;1.20;;;5.90;99.90;;;;;;5005529;28;20173;-88
2023/02/18 06:43:54;;;;;;;2.20;1.10;;;5.90;99.90;;;;;;5006768;28;20231;-86
2023/02/18 06:46:20;;;;;;;2.10;1.13;;;6.00;99.90;;;;;;5011418;28;21100;-86
2023/02/18 06:48:45;;;;;;;1.27;1.17;;;5.90;99.90;;;;;;4991867;28;20192;-83
2023/02/18 06:51:11;;;;;;;3.30;1.50;;;5.90;99.90;;;;;;4983639;28;20199;-85
2023/02/18 06:53:37;;;;;;;1.47;1.03;;;5.90;99.90;;;;;;4985747;28;20200;-84
2023/02/18 06:56:03;;;;;;;1.50;1.20;;;5.90;99.90;;;;;;4993635;28;20191;-83
2023/02/18 06:58:28;;;;;;;3.10;1.23;;;6.00;99.90;;;;;;5020400;28;20193;-83
2023/02/18 07:00:54;;;;;;;1.33;1.03;;;5.90;99.90;;;;;;4985700;28;20276;-83
2023/02/18 07:03:20;;;;;;;3.50;1.97;;;5.90;99.90;;;;;;5007504;28;20949;-83
2023/02/18 07:05:45;;;;;;;0.50;0.50;;;5.90;99.90;;;;;;4998331;28;20275;-83
2023/02/18 07:08:12;;;;;;;0.60;0.60;;;5.90;99.90;;;;;;5000872;28;20673;-84
2023/02/18 07:10:37;;;;;;;3.77;1.63;;;5.10;99.90;;;;;;5014904;28;20265;-83
2023/02/18 07:13:04;;;;;;;2.00;0.87;;;6.00;99.90;;;;;;5022005;28;20185;-84
2023/02/18 07:15:30;;;;;;;3.63;1.43;;;5.90;99.90;;;;;;5006416;28;20206;-84
2023/02/18 07:17:55;;;;;;;2.90;1.77;;;5.90;99.90;;;;;;4999710;28;20566;-82
2023/02/18 07:20:22;;;;;;;1.33;0.67;;;5.90;99.90;;;;;;5026387;28;20253;-84
2023/02/18 07:22:48;;;;;;;0.93;0.93;;;5.90;99.90;;;;;;5022892;28;20173;-84
2023/02/18 07:25:14;;;;;;;0.70;0.70;;;5.90;99.90;;;;;;4989431;28;20350;-83
2023/02/18 07:27:40;;;;;;;1.37;0.80;;;6.00;99.90;;;;;;4995018;28;20300;-84
2023/02/18 07:30:07;;;;;;;0.97;0.97;;;6.00;99.90;;;;;;5010758;28;20546;-83
2023/02/18 07:32:33;;;;;;;3.63;1.00;;;6.00;99.90;;;;;;5025543;28;20189;-84
2023/02/18 07:34:59;;;;;;;1.33;1.10;;;6.10;99.90;;;;;;5007296;28;20188;-83
2023/02/18 07:37:25;;;;;;;3.70;1.23;;;6.10;99.90;;;;;;5025991;28;20184;-84
2023/02/18 07:39:50;;;;;;;1.83;1.73;;;6.10;99.90;;;;;;5000520;28;20186;-84
2023/02/18 07:42:16;;;;;;;1.40;1.30;;;6.10;99.90;;;;;;5011247;28;20180;-85
2023/02/18 07:44:42;;;;;;;3.33;1.70;;;6.10;99.90;;;;;;5008377;28;20627;-85
2023/02/18 07:47:13;;;;;;;1.57;1.40;;;6.10;99.90;;;;;;4992456;28;20547;-83
2023/02/18 07:49:39;;;;;;;1.10;1.10;;;6.10;99.90;;;;;;5015777;28;20701;-82
2023/02/18 07:52:04;;;;;;;2.67;1.07;;;6.10;99.90;;;;;;5010105;28;20268;-83
2023/02/18 07:54:30;;;;;;;0.70;0.70;;;6.10;99.90;;;;;;5012535;28;20260;-84
2023/02/18 07:56:56;;;;;;;1.13;1.00;;;6.20;99.90;;;;;;5004278;28;20200;-84
2023/02/18 07:59:21;;;;;;;2.23;0.90;;;6.20;99.90;;;;;;4988535;28;20180;-84
2023/02/18 08:01:47;;;;;;;3.07;1.43;;;6.20;99.90;;;;;;5019309;28;20717;-84
2023/02/18 08:04:14;;;;;;;1.43;1.33;;;6.10;99.90;;;;;;5019120;28;20193;-84
2023/02/18 08:06:42;;;;;;;6.80;1.27;;;6.20;99.90;;;;;;5004420;28;20200;-83
2023/02/18 08:09:08;;;;;;;1.70;0.90;;;6.20;99.90;;;;;;5017196;28;20208;-83
2023/02/18 08:11:34;;;;;;;2.27;0.80;;;6.20;99.90;;;;;;5012302;28;20685;-83
2023/02/18 08:14:00;;;;;;;0.80;0.80;;;6.20;99.90;;;;;;5036932;28;20172;-83
2023/02/18 08:16:26;;;;;;;0.73;0.73;;;6.30;99.90;;;;;;5019090;28;20191;-83
2023/02/18 08:18:52;;;;;;;2.67;1.80;;;6.30;99.90;;;;;;4999305;28;20181;-82
2023/02/18 08:21:20;;;;;;;0.60;0.60;;;6.40;99.90;;;;;;5018405;28;20548;-84
2023/02/18 08:23:46;;;;;;;0.90;0.53;;;6.30;99.90;;;;;;4989333;28;20199;-82
2023/02/18 08:26:12;;;;;;;1.90;1.10;;;6.30;99.90;;;;;;5008733;28;20225;-82
2023/02/18 08:28:38;;;;;;;3.03;0.93;;;6.30;99.90;;;;;;4997053;28;20196;-84
2023/02/18 08:31:04;;;;;;;1.30;1.20;;;6.30;99.90;;;;;;4996970;28;20197;-82
2023/02/18 08:33:30;;;;;;;3.40;2.07;;;6.30;99.90;;;;;;5008481;28;20197;-82
2023/02/18 08:35:55;;;;;;;2.83;0.77;;;6.30;99.90;;;;;;5029080;28;20219;-84
2023/02/18 08:38:22;;;;;;;1.17;1.00;;;6.30;99.90;;;;;;4999855;28;20244;-82
2023/02/18 08:40:48;;;;;;;2.87;0.73;;;6.30;99.90;;;;;;5013834;28;20610;-83
2023/02/18 08:43:16;;;;;;;0.90;0.90;;;6.40;99.90;;;;;;5033814;28;20251;-83
2023/02/18 08:45:43;;;;;;;0.60;0.60;;;6.40;99.90;;;;;;5015429;28;20190;-84
2023/02/18 08:48:11;;;;;;;3.37;1.30;;;6.40;99.90;;;;;;4997069;28;20888;-83
2023/02/18 08:50:37;;;;;;;1.33;1.10;;;6.50;99.90;;;;;;5007352;28;20196;-83
2023/02/18 08:53:03;;;;;;;5.33;1.17;;;6.50;99.90;;;;;;4988902;28;20206;-84
2023/02/18 08:55:31;;;;;;;1.00;1.00;;;6.70;99.90;;;;;;5013789;28;20223;-84
2023/02/18 08:57:57;;;;;;;5.23;1.07;;;6.70;99.90;;;;;;5013786;28;20190;-84
2023/02/18 09:00:23;;;;;;;3.97;1.53;;;6.80;99.90;;;;;;5000226;28;20189;-83
2023/02/18 09:02:49;;;;;;;1.07;1.00;;;6.80;99.90;;;;;;5023243;28;20243;-85
2023/02/18 09:05:15;;;;;;;1.87;1.17;;;6.80;99.90;;;;;;4993411;28;20201;-83
2023/02/18 09:07:42;;;;;;;8.00;1.87;;;6.80;99.90;;;;;;5006406;28;20232;-86
2023/02/18 09:10:10;;;;;;;1.20;1.13;;;6.80;99.90;;;;;;4977000;28;20189;-85
2023/02/18 09:12:35;;;;;;;12.97;1.57;;;6.90;99.90;;;;;;5015387;28;20237;-86
2023/02/18 09:15:02;;;;;;;0.67;0.67;;;6.90;99.90;;;;;;5009682;28;20642;-84
2023/02/18 09:17:28;;;;;;;3.10;1.23;;;7.00;99.90;;;;;;5018338;28;20200;-83
2023/02/18 09:19:54;;;;;;;1.00;0.80;;;7.10;99.90;;;;;;4992175;28;20550;-84
2023/02/18 09:22:19;;;;;;;3.90;1.60;;;7.10;99.90;;;;;;4999665;28;20189;-83
2023/02/18 09:24:45;;;;;;;1.70;1.33;;;7.20;99.90;;;;;;4999410;28;20236;-83
2023/02/18 09:27:11;;;;;;;4.20;1.80;;;7.10;99.90;;;;;;5005102;28;20665;-85
2023/02/18 09:29:38;;;;;;;0.93;0.90;;;7.10;99.90;;;;;;5013782;28;20188;-83
2023/02/18 09:32:05;;;;;;;2.93;1.67;;;7.10;99.80;;;;;;5000057;28;20227;-84
2023/02/18 09:34:31;;;;;;;3.60;1.30;;;7.10;99.90;;;;;;4985705;28;20235;-84
2023/02/18 09:36:57;;;;;;;0.70;0.70;;;7.20;99.00;;;;;;5013664;28;20649;-85
2023/02/18 09:39:23;;;;;;;2.70;2.17;;;7.10;98.80;;;;;;5024377;28;20203;-86
2023/02/18 09:41:48;;;;;;;1.40;1.30;;;7.20;99.10;;;;;;5000240;28;20188;-84
2023/02/18 09:44:25;;;;;;;2.60;0.87;;;7.20;99.30;;;;;;5005460;28;20188;-87
2023/02/18 09:46:53;;;;;;;3.07;1.03;;;7.20;99.10;;;;;;5019129;28;20209;-86
2023/02/18 09:49:23;;;;;;;0.63;0.63;;;7.10;99.00;;;;;;5000029;28;20185;-86
2023/02/18 09:51:50;;;;;;;1.50;1.17;;;7.10;97.90;;;;;;5014513;28;20185;-84
2023/02/18 09:54:19;;;;;;;4.80;1.50;;;7.00;98.30;;;;;;5005022;28;20184;-84
2023/02/18 09:56:46;;;;;;;3.30;1.60;;;7.10;98.40;;;;;;4999576;28;20188;-86
2023/02/18 09:59:23;;;;;;;0.70;0.70;;;7.20;97.90;;;;;;4988171;28;20265;-85
2023/02/18 10:01:53;;;;;;;3.20;1.00;;;7.20;97.30;;;;;;4997569;28;20177;-84
2023/02/18 10:04:22;;;;;;;1.60;1.03;;;7.30;97.70;;;;;;5009805;28;20180;-85
2023/02/18 10:06:51;;;;;;;3.53;1.67;;;7.40;96.80;;;;;;4997459;28;20668;-84
2023/02/18 10:09:37;;;;;;;1.37;1.27;;;7.40;95.80;;;;;;5020565;28;20177;-86
2023/02/18 10:12:25;;;;;;;2.57;1.17;;;7.40;96.00;;;;;;4996203;28;20188;-85
2023/02/18 10:14:55;;;;;;;2.23;1.30;;;7.50;96.10;;;;;;5021121;28;20188;-85
2023/02/18 10:17:28;;;;;;;5.40;1.90;;;7.50;95.00;;;;;;5030427;28;20188;-86
2023/02/18 10:19:55;;;;;;;2.23;1.60;;;7.50;95.90;;;;;;5004348;28;20197;-86
2023/02/18 10:22:24;;;;;;;2.63;1.00;;;7.60;94.80;;;;;;5000678;28;20267;-86
2023/02/18 10:24:52;;;;;;;1.23;1.00;;;7.50;93.50;;;;;;5011927;28;20689;-84
2023/02/18 10:27:33;;;;;;;3.00;1.10;;;7.60;94.90;;;;;;5014723;28;20196;-85
2023/02/18 10:30:33;;;;;;;7.73;1.30;;;7.60;93.80;;;;;;5003565;28;20193;-86
2023/02/18 10:33:23;;;;;;;0.80;0.80;;;7.70;93.70;;;;;;4970052;28;20188;-85
2023/02/18 10:36:20;;;;;;;5.10;1.43;;;7.60;93.00;;;;;;5016524;28;20173;-85
2023/02/18 10:38:58;;;;;;;0.70;0.70;;;7.50;93.50;;;;;;5003436;28;20287;-85
2023/02/18 10:41:45;;;;;;;0.80;0.80;;;7.50;94.30;;;;;;5024483;28;20189;-84
2023/02/18 10:44:34;;;;;;;2.00;1.50;;;7.60;93.00;;;;;;5012311;28;20200;-86
2023/02/18 10:47:25;;;;;;;1.47;1.00;;;7.60;92.90;;;;;;5005687;28;20192;-84
2023/02/18 10:50:26;;;;;;;7.60;1.37;;;7.70;93.50;;;;;;5014992;28;20189;-85
2023/02/18 10:52:55;;;;;;;0.70;0.70;;;7.70;93.50;;;;;;5012542;28;20512;-88
2023/02/18 10:55:38;;;;;;;1.00;0.93;;;7.90;94.70;;;;;;5010709;28;20235;-85
2023/02/18 10:58:31;;;;;;;2.77;1.43;;;8.00;93.60;;;;;;5000336;28;20546;-85
2023/02/18 11:00:58;;;;;;;4.03;1.00;;;7.90;93.60;;;;;;5004109;28;20195;-84
2023/02/18 11:03:46;;;;;;;2.90;1.57;;;7.90;94.40;;;;;;5015982;28;20261;-86
2023/02/18 11:06:31;;;;;;;7.67;1.10;;;8.20;94.90;;;;;;5010740;28;20184;-85
2023/02/18 11:08:58;;;;;;;4.30;1.30;;;8.20;94.50;;;;;;5013335;28;20189;-85
2023/02/18 11:11:28;;;;;;;2.87;0.87;;;8.40;92.90;;;;;;4993594;28;20185;-84
2023/02/18 11:13:57;;;;;;;3.40;1.60;;;8.50;93.10;;;;;;5019674;28;20189;-85
2023/02/18 11:16:35;;;;;;;5.57;1.57;;;8.50;93.30;;;;;;5011978;28;20176;-86
2023/02/18 11:19:03;;;;;;;19.00;1.83;;;8.40;92.50;;;;;;5014271;28;20278;-86
2023/02/18 11:21:37;;;;;;;2.90;1.40;;;8.40;93.40;;;;;;5001332;28;20205;-86
2023/02/18 11:24:14;;;;;;;4.13;1.60;;;8.40;91.70;;;;;;5007743;28;20188;-85
2023/02/18 11:26:43;;;;;;;2.63;1.20;;;8.10;91.60;;;;;;4998911;28;20235;-86
2023/02/18 11:29:24;;;;;;;8.33;2.33;;;8.10;92.60;;;;;;4990964;28;20215;-84
2023/02/18 11:31:54;;;;;;;2.10;1.33;;;8.40;92.80;;;;;;5007434;28;20188;-84
2023/02/18 11:34:27;;;;;;;6.73;1.47;;;8.40;92.50;;;;;;5024318;28;20189;-86
2023/02/18 11:36:54;;;;;;;1.60;1.50;;;8.20;92.30;;;;;;5011218;28;20195;-87
2023/02/18 11:39:26;;;;;;;1.90;1.57;;;8.00;91.50;;;;;;5008889;28;20239;-85
2023/02/18 11:42:04;;;;;;;1.50;1.30;;;7.90;92.60;;;;;;5006981;28;20535;-85
2023/02/18 11:44:48;;;;;;;4.43;1.70;;;8.00;92.90;;;;;;5002130;28;20288;-86
2023/02/18 11:47:14;;;;;;;3.83;0.90;;;7.80;92.60;;;;;;5024282;28;20200;-87
2023/02/18 11:49:42;;;;;;;9.07;1.90;;;7.80;93.60;;;;;;5007043;28;20689;-84
2023/02/18 11:52:17;;;;;;;6.90;1.00;;;7.80;93.20;;;;;;5010875;28;20222;-86
2023/02/18 11:55:20;;;;;;;15.60;1.33;;;7.80;92.80;;;;;;5007858;28;20649;-85
2023/02/18 11:57:56;;;;;;;5.10;1.63;;;7.90;92.70;;;;;;5008875;28;20196;-85
2023/02/18 12:00:41;;;;;;;2.33;1.30;;;7.80;92.50;;;;;;5006094;28;20630;-85
2023/02/18 12:03:27;;;;;;;1.20;1.10;;;7.80;92.90;;;;;;5007406;28;20271;-84
2023/02/18 12:05:53;;;;;;;2.50;0.87;;;7.80;92.60;;;;;;5021301;28;20181;-83
2023/02/18 12:08:23;;;;;;;4.40;1.50;;;7.80;92.80;;;;;;5025393;28;20221;-85
2023/02/18 12:11:00;;;;;;;2.40;1.33;;;7.80;92.60;;;;;;4997621;28;20252;-84
2023/02/18 12:13:47;;;;;;;2.83;1.23;;;7.90;92.90;;;;;;5022909;28;20204;-84
2023/02/18 12:16:28;;;;;;;0.80;0.80;;;7.80;92.30;;;;;;5012120;28;20180;-85
2023/02/18 12:19:09;;;;;;;2.03;0.83;;;7.90;92.80;;;;;;5009278;28;20330;-83
2023/02/18 12:22:07;;;;;;;1.70;1.00;;;8.10;92.70;;;;;;5013860;28;20565;-82
2023/02/18 12:25:04;;;;;;;1.57;0.97;;;8.00;92.70;;;;;;5010921;28;20556;-83
2023/02/18 12:27:43;;;;;;;3.43;1.73;;;8.10;92.50;;;;;;5026035;28;20220;-85
2023/02/18 12:30:25;;;;;;;1.53;1.00;;;8.20;93.40;;;;;;5025966;28;20185;-83
2023/02/18 12:33:13;;;;;;;1.23;0.87;;;8.30;92.90;;;;;;5027208;28;20189;-85
2023/02/18 12:36:06;;;;;;;2.93;1.10;;;8.50;93.00;;;;;;5008418;28;20208;-85
2023/02/18 12:38:52;;;;;;;1.20;0.93;;;8.60;92.50;;;;;;5008661;28;20203;-86
2023/02/18 12:41:35;;;;;;;2.00;1.20;;;8.60;91.50;;;;;;5021983;28;20704;-85
2023/02/18 12:44:33;;;;;;;1.93;1.03;;;8.90;91.70;;;;;;5002566;28;20181;-84
2023/02/18 12:47:17;;;;;;;2.70;0.90;;;8.90;89.80;;;;;;5011537;28;20325;-86
2023/02/18 12:50:14;;;;;;;10.13;2.07;;;8.90;90.30;;;;;;5007377;28;20216;-84
2023/02/18 12:52:54;;;;;;;2.05;1.20;;;8.80;88.60;;;;;;5010854;28;20196;-85
2023/02/18 12:55:45;;;;;;;5.80;1.10;;;8.60;90.40;;;;;;5011499;28;20260;-85
2023/02/18 12:58:11;;;;;;;1.33;1.13;;;8.50;89.00;;;;;;5023110;28;20220;-85
2023/02/18 13:00:55;;;;;;;1.00;0.80;;;8.40;90.60;;;;;;5000840;28;20259;-85
2023/02/18 13:03:46;;;;;;;1.50;1.00;;;8.50;90.20;;;;;;5010285;28;20181;-85
2023/02/18 13:06:24;;;;;;;2.67;1.40;;;8.50;90.00;;;;;;5016240;28;20185;-84
2023/02/18 13:08:59;;;;;;;2.63;0.73;;;8.50;89.20;;;;;;5007894;28;20200;-85
2023/02/18 13:11:50;;;;;;;5.07;0.93;;;8.40;88.80;;;;;;5001134;28;20188;-87
2023/02/18 13:14:23;;;;;;;3.20;1.40;;;8.30;89.70;;;;;;5013539;28;20181;-83
2023/02/18 13:16:52;;;;;;;3.87;0.70;;;8.20;90.60;;;;;;5030578;28;20192;-84
2023/02/18 13:19:25;;;;;;;1.30;1.00;;;8.10;90.90;;;;;;5014876;28;20188;-84